• Join FlightAware (Why Join?)
  • Login
  • US Flag 
06:11PM EDT


 

Airport Tracker/Info


-or-


 

Live Flight TrackerFlight Track Log ✈ SAS2711 ✈ 24-Apr-2014 ✈ EFTU / TKU - EKCH / CPH

Flight Track Log - Related Links

Times and Time Zones

All times are in EDT time to prevent confusion due to time zone crossing. See the SAS2711 flight status page for this flight to view local times or setup timezone preferences in your user account.

Time Position Orientation Groundspeed Altitude Reporting Facility
EDT Latitude Longitude Course Direction KTS MPH feet Rate Location/Type
11:53PM 60.2986 21.7428 230° Southwest  Level Estimated
11:54PM 60.2263 21.5709 230° Southwest  Level Estimated
11:55PM 60.1538 21.3999 230° Southwest  Level Estimated
11:56PM 60.0811 21.2295 229° Southwest  Level Estimated
11:57PM 60.0081 21.0600 229° Southwest  Level Estimated
11:58PM 59.9350 20.8912 229° Southwest  Level Estimated
11:59PM 59.8616 20.7231 229° Southwest  Level Estimated
12:00AM 59.7880 20.5558 229° Southwest  Level Estimated
12:01AM 59.7142 20.3892 229° Southwest  Level Estimated
12:02AM 59.6401 20.2233 229° Southwest  Level Estimated
12:03AM 59.5659 20.0582 228° Southwest  Level Estimated
12:04AM 59.4915 19.8938 228° Southwest  Level Estimated
12:05AM 59.4169 19.7301 228° Southwest  Level Estimated
12:06AM 59.3420 19.5672 228° Southwest  Level Estimated
12:07AM 59.2670 19.4049 228° Southwest  Level Estimated
12:08AM 59.1917 19.2434 228° Southwest  Level Estimated
12:09AM 59.1163 19.0826 228° Southwest  Level Estimated
12:10AM 59.0406 18.9225 227° Southwest  Level Estimated
12:11AM 58.9648 18.7631 227° Southwest  Level Estimated
12:12AM 58.8888 18.6044 227° Southwest  Level Estimated
12:13AM 58.8125 18.4464 227° Southwest  Level Estimated
12:14AM 58.7361 18.2891 227° Southwest  Level Estimated
12:15AM 58.6595 18.1325 227° Southwest  Level Estimated
12:16AM 58.5827 17.9765 227° Southwest  Level Estimated
12:17AM 58.5057 17.8213 227° Southwest  Level Estimated
12:18AM 58.4286 17.6667 226° Southwest  Level Estimated
12:19AM 58.3512 17.5128 226° Southwest  Level Estimated
12:20AM 58.2737 17.3596 226° Southwest  Level Estimated
12:21AM 58.1959 17.2071 226° Southwest  Level Estimated
12:22AM 58.1180 17.0552 226° Southwest  Level Estimated
12:23AM 58.0399 16.9040 226° Southwest  Level Estimated
12:24AM 57.9617 16.7534 226° Southwest  Level Estimated
12:25AM 57.8832 16.6035 225° Southwest  Level Estimated
12:26AM 57.8046 16.4543 225° Southwest  Level Estimated
12:27AM 57.7258 16.3057 225° Southwest  Level Estimated
12:28AM 57.6469 16.1577 225° Southwest  Level Estimated
12:29AM 57.5677 16.0104 225° Southwest  Level Estimated
12:30AM 57.4884 15.8637 225° Southwest  Level Estimated
12:31AM 57.4089 15.7177 225° Southwest  Level Estimated
12:32AM 57.3293 15.5723 225° Southwest  Level Estimated
12:33AM 57.2495 15.4275 224° Southwest  Level Estimated
12:34AM 57.1695 15.2834 224° Southwest  Level Estimated
12:35AM 57.0894 15.1399 224° Southwest  Level Estimated
12:36AM 57.0090 14.9970 224° Southwest  Level Estimated
12:37AM 56.9286 14.8547 224° Southwest  Level Estimated
12:38AM 56.8479 14.7130 224° Southwest  Level Estimated
12:39AM 56.7672 14.5720 224° Southwest  Level Estimated
12:40AM 56.6862 14.4315 224° Southwest  Level Estimated
12:41AM 56.6051 14.2916 224° Southwest  Level Estimated
12:42AM 56.5238 14.1524 223° Southwest  Level Estimated
12:43AM 56.4424 14.0138 223° Southwest  Level Estimated
12:44AM 56.3609 13.8757 223° Southwest  Level Estimated
12:45AM 56.2791 13.7382 223° Southwest  Level Estimated
12:46AM 56.1973 13.6013 223° Southwest  Level Estimated
12:47AM 56.1152 13.4650 223° Southwest  Level Estimated
12:48AM 56.0331 13.3293 223° Southwest  Level Estimated
12:49AM 55.9507 13.1942 223° Southwest  Level Estimated
12:50AM 55.8683 13.0596 223° Southwest  Level Estimated
12:51AM 55.7857 12.9256 222° Southwest  Level Estimated
12:52AM 55.7029 12.7922 222° Southwest  Level Estimated
12:53AM 55.6200 12.6593 222° Southwest  Level Estimated
12:54AM 55.6179 12.6560 222° Southwest  Level Estimated
12:55AM 55.6179 12.6560 North  Level Estimated
12:56AM 55.6179 12.6560 North  Level Estimated
12:57AM 55.6179 12.6560 North  Level Estimated
12:58AM 55.6179 12.6560 North  Level Estimated
12:59AM 55.6179 12.6560 North  Level Estimated
01:00AM 55.6179 12.6560 North  Level Estimated
01:01AM 55.6179 12.6560 North  Level Estimated
01:02AM 55.6179 12.6560 North  Level Estimated
01:03AM 55.6179 12.6560 North  Level Estimated
01:04AM 55.6179 12.6560 North  Level Estimated
01:05AM 55.6179 12.6560 North  Level Estimated
01:06AM 55.6179 12.6560 North  Level Estimated
01:07AM 55.6179 12.6560 North  Level Estimated
01:08AM 55.6179 12.6560 North  Level Estimated
01:09AM 55.6179 12.6560 North  Level Estimated